DEBHV EDLW-EDLW

Flight info

Callsign DEBHV
Flight time 0h 37m
Altitude
Route DCT
Aircraft SR22

Departure

Time 2026-04-29 13:48
Airport Dortmund Airport (EDLW)

Arrival

Time 2026-04-29 14:26
Airport Dortmund Airport (EDLW)
Time Latitude Longitude Altitude Speed Heading
2026-04-29 13:29 51.51217 7.60473 439 ft 0 kts 107°
2026-04-29 13:43 51.51216 7.60477 438 ft 1 kts 87°
2026-04-29 13:43 51.51229 7.60487 438 ft 0 kts 339°
2026-04-29 13:43 51.51244 7.60458 439 ft 8 kts 281°
2026-04-29 13:44 51.51212 7.60347 437 ft 14 kts 241°
2026-04-29 13:44 51.51162 7.60235 443 ft 13 kts 234°
2026-04-29 13:44 51.51204 7.60185 437 ft 11 kts 60°
2026-04-29 13:44 51.51252 7.60320 436 ft 17 kts 59°
2026-04-29 13:45 51.51304 7.60470 441 ft 0 kts 60°
2026-04-29 13:45 51.51328 7.60537 441 ft 11 kts 60°
2026-04-29 13:45 51.51383 7.60695 432 ft 16 kts 61°
2026-04-29 13:45 51.51451 7.60888 428 ft 22 kts 60°
2026-04-29 13:46 51.51518 7.61052 425 ft 13 kts 29°
2026-04-29 13:46 51.51567 7.60969 425 ft 16 kts 265°
2026-04-29 13:46 51.51539 7.60790 412 ft 10 kts 254°
2026-04-29 13:46 51.51532 7.60745 412 ft 5 kts 255°
2026-04-29 13:47 51.51532 7.60657 409 ft 10 kts 291°
2026-04-29 13:47 51.51616 7.60612 409 ft 12 kts 26°
2026-04-29 13:47 51.51635 7.60658 411 ft 1 kts 62°
2026-04-29 13:47 51.51780 7.61070 413 ft 79 kts 59°
2026-04-29 13:48 51.52091 7.61930 577 ft 98 kts 58°
2026-04-29 13:48 51.52459 7.62853 876 ft 102 kts 53°
2026-04-29 13:48 51.52920 7.63747 1137 ft 108 kts 48°
2026-04-29 13:48 51.53522 7.64368 1426 ft 105 kts 357°
2026-04-29 13:49 51.54025 7.63611 1633 ft 109 kts 274°
2026-04-29 13:49 51.53764 7.62518 1910 ft 110 kts 239°
2026-04-29 13:49 51.53346 7.61358 1944 ft 125 kts 240°
2026-04-29 13:49 51.52974 7.60136 1943 ft 112 kts 246°
2026-04-29 13:50 51.52661 7.59090 1820 ft 98 kts 244°
2026-04-29 13:50 51.52360 7.58140 1715 ft 95 kts 243°
2026-04-29 13:50 51.52064 7.57197 1582 ft 97 kts 237°
2026-04-29 13:50 51.51539 7.56733 1420 ft 84 kts 181°
2026-04-29 13:51 51.51151 7.57279 1208 ft 83 kts 115°
2026-04-29 13:51 51.50987 7.58212 930 ft 90 kts 97°
2026-04-29 13:51 51.51114 7.59169 676 ft 86 kts 62°
2026-04-29 13:51 51.51395 7.59979 512 ft 83 kts 59°
2026-04-29 13:52 51.51664 7.60746 421 ft 73 kts 60°
2026-04-29 13:52 51.51901 7.61413 420 ft 74 kts 59°
2026-04-29 13:52 51.52185 7.62249 634 ft 91 kts 61°
2026-04-29 13:52 51.52498 7.63153 955 ft 94 kts 58°
2026-04-29 13:53 51.52852 7.64053 1281 ft 98 kts 54°
2026-04-29 13:53 51.53444 7.64728 1619 ft 104 kts 17°
2026-04-29 13:53 51.54152 7.64748 2027 ft 104 kts 356°
2026-04-29 13:53 51.54580 7.63825 2284 ft 115 kts 270°
2026-04-29 13:54 51.54120 7.62698 2459 ft 133 kts 229°
2026-04-29 13:54 51.53513 7.61465 2431 ft 141 kts 235°
2026-04-29 13:54 51.53015 7.60260 2438 ft 116 kts 237°
2026-04-29 13:54 51.52603 7.59242 2318 ft 109 kts 239°
2026-04-29 13:55 51.52223 7.58156 2117 ft 109 kts 244°
2026-04-29 13:55 51.51886 7.57086 1991 ft 104 kts 243°
2026-04-29 13:55 51.51545 7.56066 1849 ft 102 kts 241°
2026-04-29 13:55 51.51211 7.55084 1717 ft 100 kts 237°
2026-04-29 13:56 51.50735 7.54298 1573 ft 101 kts 199°
2026-04-29 13:56 51.50093 7.54545 1515 ft 99 kts 135°
2026-04-29 13:56 51.49829 7.55600 1360 ft 103 kts 88°
2026-04-29 13:56 51.50161 7.56568 1197 ft 94 kts 52°
2026-04-29 13:57 51.50476 7.57420 966 ft 86 kts 62°
2026-04-29 13:57 51.50785 7.58235 740 ft 83 kts 62°
2026-04-29 13:57 51.51054 7.59016 597 ft 77 kts 59°
2026-04-29 13:57 51.51306 7.59724 503 ft 72 kts 60°
2026-04-29 13:58 51.51552 7.60428 458 ft 73 kts 61°
2026-04-29 13:58 51.51792 7.61120 426 ft 68 kts 57°
2026-04-29 13:58 51.52021 7.61762 413 ft 65 kts 60°
2026-04-29 13:58 51.52272 7.62482 563 ft 83 kts 59°
2026-04-29 13:59 51.52583 7.63275 873 ft 89 kts 55°
2026-04-29 13:59 51.52899 7.64197 1131 ft 99 kts 60°
2026-04-29 13:59 51.53445 7.64831 1399 ft 107 kts
2026-04-29 13:59 51.54002 7.64191 1727 ft 111 kts 277°
2026-04-29 14:00 51.53730 7.63008 1984 ft 126 kts 234°
2026-04-29 14:00 51.53208 7.61731 2017 ft 145 kts 237°
2026-04-29 14:00 51.52695 7.60463 1877 ft 120 kts 237°
2026-04-29 14:00 51.52307 7.59481 1685 ft 94 kts 239°
2026-04-29 14:01 51.51985 7.58619 1506 ft 87 kts 239°
2026-04-29 14:01 51.51631 7.57812 1296 ft 89 kts 218°
2026-04-29 14:01 51.51105 7.57980 1102 ft 90 kts 127°
2026-04-29 14:01 51.51076 7.58985 772 ft 94 kts 71°
2026-04-29 14:02 51.51376 7.59890 550 ft 91 kts 60°
2026-04-29 14:02 51.51658 7.60722 433 ft 78 kts 60°
2026-04-29 14:02 51.51913 7.61434 412 ft 80 kts 60°
2026-04-29 14:02 51.52236 7.62327 623 ft 96 kts 57°
2026-04-29 14:03 51.52610 7.63200 950 ft 97 kts 52°
2026-04-29 14:03 51.52997 7.64107 1279 ft 99 kts 54°
2026-04-29 14:03 51.53545 7.64812 1492 ft 108 kts 12°
2026-04-29 14:03 51.54219 7.64495 1779 ft 105 kts 304°
2026-04-29 14:04 51.54404 7.63381 2065 ft 102 kts 264°
2026-04-29 14:04 51.54083 7.62427 2347 ft 105 kts 218°
2026-04-29 14:04 51.53501 7.61434 2172 ft 128 kts 232°
2026-04-29 14:04 51.52980 7.60371 1926 ft 113 kts 231°
2026-04-29 14:05 51.52600 7.59353 1734 ft 102 kts 246°
2026-04-29 14:05 51.52381 7.58291 1586 ft 97 kts 249°
2026-04-29 14:05 51.52092 7.57439 1517 ft 80 kts 237°
2026-04-29 14:05 51.51671 7.56822 1291 ft 91 kts 204°
2026-04-29 14:06 51.51058 7.56973 1086 ft 93 kts 134°
2026-04-29 14:06 51.50879 7.57925 888 ft 94 kts 91°
2026-04-29 14:06 51.51018 7.58921 723 ft 88 kts 64°
2026-04-29 14:06 51.51318 7.59762 582 ft 87 kts 59°
2026-04-29 14:07 51.51612 7.60596 463 ft 84 kts 59°
2026-04-29 14:07 51.51877 7.61355 415 ft 74 kts 60°
2026-04-29 14:07 51.52121 7.62047 414 ft 77 kts 60°
2026-04-29 14:07 51.52410 7.62885 679 ft 89 kts 63°
2026-04-29 14:08 51.52685 7.63824 979 ft 97 kts 64°
2026-04-29 14:08 51.53063 7.64769 1217 ft 105 kts 37°
2026-04-29 14:08 51.53748 7.65020 1505 ft 105 kts 341°
2026-04-29 14:08 51.54201 7.64158 1764 ft 105 kts 280°
2026-04-29 14:09 51.53875 7.63178 1949 ft 114 kts 221°
2026-04-29 14:09 51.53288 7.62301 2023 ft 114 kts 232°
2026-04-29 14:09 51.52895 7.61315 1993 ft 103 kts 231°
2026-04-29 14:09 51.52487 7.60390 1769 ft 95 kts 236°
2026-04-29 14:10 51.52087 7.59573 1466 ft 91 kts 237°
2026-04-29 14:10 51.51815 7.58701 1317 ft 85 kts 245°
2026-04-29 14:10 51.51577 7.57842 1200 ft 83 kts 247°
2026-04-29 14:10 51.51312 7.57087 1089 ft 80 kts 205°
2026-04-29 14:11 51.50940 7.57543 929 ft 87 kts 96°
2026-04-29 14:11 51.50982 7.58499 775 ft 85 kts 77°
2026-04-29 14:11 51.51190 7.59392 636 ft 85 kts 59°
2026-04-29 14:11 51.51478 7.60202 500 ft 82 kts 57°
2026-04-29 14:12 51.51745 7.60975 421 ft 75 kts 59°
2026-04-29 14:12 51.51993 7.61667 412 ft 70 kts 58°
2026-04-29 14:12 51.52278 7.62489 592 ft 90 kts 59°
2026-04-29 14:12 51.52596 7.63376 925 ft 93 kts 55°
2026-04-29 14:13 51.52957 7.64278 1169 ft 104 kts 49°
2026-04-29 14:13 51.53430 7.65175 1460 ft 105 kts 46°
2026-04-29 14:13 51.54038 7.65772 1705 ft 115 kts 355°
2026-04-29 14:13 51.54843 7.65280 1810 ft 134 kts 317°
2026-04-29 14:14 51.54791 7.64057 2178 ft 132 kts 225°
2026-04-29 14:14 51.54150 7.62892 2174 ft 135 kts 231°
2026-04-29 14:14 51.53634 7.61720 2100 ft 125 kts 236°
2026-04-29 14:14 51.53149 7.60591 2011 ft 122 kts 234°
2026-04-29 14:15 51.52639 7.59476 1847 ft 126 kts 236°
2026-04-29 14:15 51.52141 7.58347 1711 ft 126 kts 234°
2026-04-29 14:15 51.51725 7.57183 1664 ft 110 kts 244°
2026-04-29 14:15 51.51407 7.56132 1533 ft 97 kts 243°
2026-04-29 14:16 51.50874 7.55863 1297 ft 86 kts 155°
2026-04-29 14:16 51.50696 7.56403 1104 ft 85 kts 98°
2026-04-29 14:16 51.50648 7.57340 848 ft 86 kts 96°
2026-04-29 14:16 51.50761 7.58221 756 ft 79 kts 62°
2026-04-29 14:17 51.51037 7.58989 664 ft 78 kts 65°
2026-04-29 14:17 51.51282 7.59728 567 ft 74 kts 55°
2026-04-29 14:17 51.51552 7.60434 472 ft 75 kts 59°
2026-04-29 14:17 51.51805 7.61154 426 ft 71 kts 59°
2026-04-29 14:18 51.52042 7.61822 411 ft 67 kts 59°
2026-04-29 14:18 51.52301 7.62610 620 ft 86 kts 65°
2026-04-29 14:18 51.52555 7.63504 916 ft 94 kts 63°
2026-04-29 14:18 51.52892 7.64480 1137 ft 107 kts 56°
2026-04-29 14:19 51.53359 7.65422 1410 ft 109 kts 37°
2026-04-29 14:19 51.54054 7.65409 1632 ft 109 kts 316°
2026-04-29 14:19 51.54085 7.64386 1924 ft 109 kts 239°
2026-04-29 14:19 51.53611 7.63220 1988 ft 137 kts 235°
2026-04-29 14:20 51.53097 7.61844 2036 ft 148 kts 242°
2026-04-29 14:20 51.52629 7.60374 2186 ft 147 kts 242°
2026-04-29 14:20 51.52047 7.59001 1924 ft 149 kts 230°
2026-04-29 14:20 51.51474 7.57814 2036 ft 123 kts 225°
2026-04-29 14:21 51.50854 7.57992 1659 ft 137 kts 87°
2026-04-29 14:21 51.51158 7.59353 856 ft 128 kts 58°
2026-04-29 14:21 51.51571 7.60470 487 ft 101 kts 62°
2026-04-29 14:21 51.51876 7.61319 419 ft 75 kts 53°
2026-04-29 14:22 51.52133 7.62081 513 ft 86 kts 63°
2026-04-29 14:22 51.52432 7.62966 799 ft 93 kts 55°
2026-04-29 14:22 51.52824 7.63814 1109 ft 98 kts 45°
2026-04-29 14:22 51.53419 7.64212 1400 ft 100 kts 339°
2026-04-29 14:23 51.53661 7.63235 1657 ft 116 kts 235°
2026-04-29 14:23 51.53122 7.62147 1791 ft 136 kts 231°
2026-04-29 14:23 51.52565 7.60931 1742 ft 130 kts 238°
2026-04-29 14:23 51.52093 7.59751 1542 ft 116 kts 237°
2026-04-29 14:24 51.51662 7.58749 1407 ft 101 kts 234°
2026-04-29 14:24 51.51348 7.57861 1365 ft 83 kts 242°
2026-04-29 14:24 51.51060 7.57054 1278 ft 82 kts 239°
2026-04-29 14:24 51.50642 7.56739 1206 ft 80 kts 136°
2026-04-29 14:25 51.50612 7.57685 924 ft 95 kts 72°
2026-04-29 14:25 51.50916 7.58592 738 ft 89 kts 62°
2026-04-29 14:25 51.51212 7.59442 575 ft 86 kts 61°
2026-04-29 14:25 51.51497 7.60270 453 ft 82 kts 60°
2026-04-29 14:26 51.51763 7.61018 419 ft 72 kts 59°
2026-04-29 14:26 51.51977 7.61620 412 ft 46 kts 57°
2026-04-29 14:26 51.52103 7.61981 414 ft 28 kts 60°
2026-04-29 14:26 51.52198 7.62258 414 ft 22 kts 65°
2026-04-29 14:27 51.52123 7.62369 413 ft 19 kts 151°
2026-04-29 14:27 51.52089 7.62398 411 ft 0 kts 165°
2026-04-29 14:28 51.52087 7.62398 411 ft 2 kts 166°
2026-04-29 14:29 51.52041 7.62356 410 ft 13 kts 240°
2026-04-29 14:29 51.52011 7.62271 412 ft 16 kts 237°
2026-04-29 14:29 51.51996 7.62230 412 ft 17 kts 243°
2026-04-29 14:29 51.51934 7.62051 412 ft 20 kts 241°
2026-04-29 14:30 51.51859 7.61849 413 ft 21 kts 235°
2026-04-29 14:30 51.51786 7.61639 422 ft 19 kts 230°
2026-04-29 14:30 51.51726 7.61463 427 ft 19 kts 232°
2026-04-29 14:30 51.51655 7.61268 427 ft 22 kts 240°
2026-04-29 14:31 51.51579 7.61056 428 ft 18 kts 221°
2026-04-29 14:31 51.51497 7.61017 425 ft 16 kts 242°
2026-04-29 14:31 51.51434 7.60838 424 ft 21 kts 242°
2026-04-29 14:31 51.51362 7.60635 431 ft 19 kts 241°
2026-04-29 14:32 51.51301 7.60456 438 ft 19 kts 240°
2026-04-29 14:32 51.51229 7.60254 438 ft 22 kts 241°
2026-04-29 14:32 51.51157 7.60185 439 ft 16 kts 105°
2026-04-29 14:32 51.51191 7.60286 443 ft 12 kts 55°
2026-04-29 14:33 51.51241 7.60426 444 ft 17 kts 61°
2026-04-29 14:33 51.51258 7.60523 444 ft 7 kts 197°
2026-04-29 14:33 51.51230 7.60508 444 ft 0 kts 193°